Time;durP1;ratioP1;P1;durP2;ratioP2;P2;SDS_P1;SDS_P2;PMS_P1;PMS_P2;Temp;Humidity;BMP_temperature;BMP_pressure;BME280_temperature;BME280_humidity;BME280_pressure;Samples;Min_cycle;Max_cycle;Signal;HPM_P1;HPM_P2
2021/01/14 00:00:38;;;;;;;14.20;1.77;;;-0.90;99.90;;;;;;5078633;28;20032;-48
2021/01/14 00:03:05;;;;;;;11.07;2.50;;;-0.80;99.90;;;;;;5059350;28;20048;-52
2021/01/14 00:05:31;;;;;;;12.18;1.73;;;-0.80;99.90;;;;;;5058687;28;20492;-47
2021/01/14 00:07:58;;;;;;;13.27;1.83;;;-0.90;99.90;;;;;;5067389;28;20038;-50
2021/01/14 00:10:23;;;;;;;15.48;2.03;;;-0.90;99.90;;;;;;5079223;28;20430;-55
2021/01/14 00:12:49;;;;;;;14.82;2.17;;;-0.80;99.90;;;;;;5063316;28;20506;-55
2021/01/14 00:15:16;;;;;;;11.68;2.33;;;-0.80;99.90;;;;;;5049696;28;20064;-55
2021/01/14 00:17:42;;;;;;;11.73;2.15;;;-0.90;99.90;;;;;;5045376;28;20171;-51
2021/01/14 00:20:14;;;;;;;15.68;1.55;;;-0.80;99.90;;;;;;5046669;28;20037;-51
2021/01/14 00:22:39;;;;;;;11.40;1.48;;;-0.80;99.90;;;;;;5045222;28;20560;-52
2021/01/14 00:25:08;;;;;;;10.98;2.42;;;-0.80;99.90;;;;;;5062366;28;20036;-48
2021/01/14 00:27:33;;;;;;;10.60;1.70;;;-0.80;99.90;;;;;;5064443;28;20047;-48
2021/01/14 00:29:59;;;;;;;18.02;2.10;;;-0.80;99.90;;;;;;5065777;28;20036;-52
2021/01/14 00:32:25;;;;;;;7.63;2.45;;;-0.80;99.90;;;;;;5064811;28;20044;-54
2021/01/14 00:34:50;;;;;;;10.82;2.53;;;-0.80;99.90;;;;;;5046725;28;20040;-52
2021/01/14 00:40:01;;;;;;;13.95;1.75;;;-0.70;99.90;;;;;;5065227;28;20036;-52
2021/01/14 00:42:26;;;;;;;21.20;3.72;;;-0.70;99.90;;;;;;5056440;28;20059;-54
2021/01/14 00:44:52;;;;;;;20.85;1.95;;;-0.70;99.90;;;;;;5047665;28;20617;-48
2021/01/14 00:47:17;;;;;;;17.70;2.17;;;-0.70;99.90;;;;;;5062771;28;20458;-52
2021/01/14 00:49:43;;;;;;;13.77;2.35;;;-0.70;99.90;;;;;;5065992;28;20032;-48
2021/01/14 00:52:10;;;;;;;10.45;1.90;;;-0.80;99.90;;;;;;5065049;28;20048;-49
2021/01/14 00:54:38;;;;;;;17.13;3.58;;;-0.80;99.90;;;;;;5065769;28;20511;-51
2021/01/14 00:57:09;;;;;;;16.10;2.00;;;-0.80;99.90;;;;;;5064363;28;20043;-52
2021/01/14 00:59:38;;;;;;;11.85;2.15;;;-0.80;99.90;;;;;;5065349;28;20105;-53
2021/01/14 01:02:04;;;;;;;10.60;2.25;;;-0.80;99.90;;;;;;5063597;28;20033;-55
2021/01/14 01:04:30;;;;;;;6.70;1.45;;;-0.90;99.90;;;;;;5065654;28;20088;-51
2021/01/14 01:06:56;;;;;;;13.80;2.35;;;-0.80;99.90;;;;;;5064827;28;20095;-54
2021/01/14 01:09:23;;;;;;;8.60;1.35;;;-0.80;99.90;;;;;;5058102;28;20071;-51
2021/01/14 01:11:48;;;;;;;20.23;3.15;;;-0.80;99.90;;;;;;5063571;28;20705;-54
2021/01/14 01:14:14;;;;;;;13.13;2.38;;;-0.70;99.90;;;;;;5066465;28;20044;-52
2021/01/14 01:16:39;;;;;;;12.15;1.77;;;-0.70;99.90;;;;;;5064170;28;20190;-50
2021/01/14 01:19:05;;;;;;;8.95;1.50;;;-0.60;99.90;;;;;;5066084;28;20064;-47
2021/01/14 01:21:30;;;;;;;16.08;2.17;;;-0.70;99.90;;;;;;5066058;28;20560;-52
2021/01/14 01:23:56;;;;;;;12.00;2.00;;;-0.80;99.90;;;;;;5046190;28;20045;-50
2021/01/14 01:26:22;;;;;;;13.50;2.05;;;-0.90;99.90;;;;;;5043725;28;20295;-53
2021/01/14 01:28:47;;;;;;;12.15;2.40;;;-0.90;99.90;;;;;;5045455;28;20045;-53
2021/01/14 01:31:14;;;;;;;10.80;1.80;;;-0.80;99.90;;;;;;5045167;28;20400;-51
2021/01/14 01:33:41;;;;;;;10.05;2.08;;;-0.80;99.90;;;;;;5061826;28;20419;-53
2021/01/14 01:36:07;;;;;;;13.65;1.98;;;-0.70;99.90;;;;;;5061581;28;20055;-52
2021/01/14 01:38:33;;;;;;;13.90;2.30;;;-0.70;99.90;;;;;;5065367;28;20067;-51
2021/01/14 01:41:00;;;;;;;7.30;2.30;;;-0.70;99.90;;;;;;5064391;28;20064;-53
2021/01/14 01:43:27;;;;;;;15.82;2.20;;;-0.90;99.90;;;;;;5064982;28;20044;-47
2021/01/14 01:45:53;;;;;;;16.38;2.60;;;-0.90;99.90;;;;;;5063436;28;20182;-53
2021/01/14 01:48:19;;;;;;;9.30;2.03;;;-0.90;99.90;;;;;;5065010;28;20036;-49
2021/01/14 01:50:46;;;;;;;8.55;2.15;;;-0.90;99.90;;;;;;5065566;28;20040;-46
2021/01/14 01:53:12;;;;;;;10.48;2.78;;;-0.90;99.90;;;;;;5051810;28;20041;-47
2021/01/14 01:55:39;;;;;;;20.10;2.22;;;-0.90;99.90;;;;;;5044615;28;20117;-47
2021/01/14 01:58:05;;;;;;;7.45;2.28;;;-0.90;99.90;;;;;;5044251;28;20052;-49
2021/01/14 02:00:32;;;;;;;13.00;2.30;;;-0.90;99.90;;;;;;5043980;28;20124;-48
2021/01/14 02:02:57;;;;;;;10.45;2.22;;;-0.90;99.90;;;;;;5044937;28;20415;-53
2021/01/14 02:05:23;;;;;;;14.35;3.40;;;-0.90;99.90;;;;;;5044537;28;20045;-47
2021/01/14 02:07:48;;;;;;;21.60;2.40;;;-0.90;99.90;;;;;;5050905;28;20036;-51
2021/01/14 02:10:27;;;;;;;5.82;2.60;;;-0.90;99.90;;;;;;5064247;28;20037;-49
2021/01/14 02:13:28;;;;;;;9.52;2.10;;;-0.90;99.90;;;;;;5063773;28;20094;-52
2021/01/14 02:15:57;;;;;;;9.15;2.50;;;-0.90;99.90;;;;;;5043562;28;20041;-49
2021/01/14 02:18:23;;;;;;;10.38;2.30;;;-0.90;99.90;;;;;;5044685;28;20475;-48
2021/01/14 02:20:50;;;;;;;14.35;2.47;;;-0.90;99.90;;;;;;5045477;28;20097;-48
2021/01/14 02:23:26;;;;;;;19.88;3.20;;;-1.00;99.90;;;;;;5044739;28;20131;-55
2021/01/14 02:26:05;;;;;;;16.48;2.90;;;-1.10;99.90;;;;;;5043578;28;20048;-52
2021/01/14 02:28:33;;;;;;;10.15;2.20;;;-1.10;99.90;;;;;;5045070;28;20080;-53
2021/01/14 02:30:59;;;;;;;7.85;2.13;;;-1.10;99.90;;;;;;5044108;28;20067;-52
2021/01/14 02:33:25;;;;;;;10.32;2.60;;;-1.00;99.90;;;;;;5061856;28;20047;-52
2021/01/14 02:35:51;;;;;;;10.48;3.00;;;-1.10;99.90;;;;;;5063708;28;20139;-49
2021/01/14 02:38:16;;;;;;;12.15;2.22;;;-1.10;99.90;;;;;;5062437;28;20455;-54
2021/01/14 02:40:42;;;;;;;15.60;2.70;;;-1.10;99.90;;;;;;5059231;28;20032;-49
2021/01/14 02:43:07;;;;;;;10.50;2.35;;;-1.00;99.90;;;;;;5060131;28;20214;-53
2021/01/14 02:45:34;;;;;;;11.35;2.10;;;-1.00;99.90;;;;;;5059785;28;20047;-49
2021/01/14 02:48:01;;;;;;;12.70;2.65;;;-1.00;99.90;;;;;;5064063;28;20045;-52
2021/01/14 02:50:28;;;;;;;15.07;2.50;;;-1.00;99.90;;;;;;5064022;28;20561;-49
2021/01/14 02:52:59;;;;;;;10.20;2.15;;;-0.90;99.90;;;;;;5063919;28;20591;-50
2021/01/14 02:55:26;;;;;;;15.25;2.25;;;-1.00;99.90;;;;;;5064430;28;20051;-50
2021/01/14 02:57:52;;;;;;;5.80;1.70;;;-1.00;99.90;;;;;;5062225;28;20040;-56
2021/01/14 03:00:17;;;;;;;9.18;2.35;;;-0.90;99.90;;;;;;5043505;28;20098;-52
2021/01/14 03:02:43;;;;;;;12.85;1.90;;;-0.90;99.90;;;;;;5053723;28;20876;-46
2021/01/14 03:05:09;;;;;;;8.48;2.00;;;-1.00;99.90;;;;;;5064203;28;20115;-49
2021/01/14 03:07:34;;;;;;;10.15;1.90;;;-1.00;99.90;;;;;;5063212;28;20425;-50
2021/01/14 03:10:00;;;;;;;9.23;2.20;;;-1.00;99.90;;;;;;5064521;28;20037;-48
2021/01/14 03:12:25;;;;;;;10.93;2.25;;;-1.00;99.90;;;;;;5063184;28;20036;-47
2021/01/14 03:14:51;;;;;;;14.20;2.28;;;-1.00;99.90;;;;;;5063725;28;20082;-50
2021/01/14 03:17:17;;;;;;;13.82;1.92;;;-1.00;99.90;;;;;;5062518;28;20044;-53
2021/01/14 03:19:43;;;;;;;8.73;2.85;;;-1.00;99.90;;;;;;5056476;28;20108;-54
2021/01/14 03:22:09;;;;;;;13.00;2.60;;;-1.10;99.90;;;;;;5050011;28;20044;-52
2021/01/14 03:24:34;;;;;;;10.10;2.58;;;-1.10;99.90;;;;;;5064227;28;20147;-53
2021/01/14 03:27:00;;;;;;;13.68;2.20;;;-1.10;99.90;;;;;;5060306;28;20047;-50
2021/01/14 03:29:25;;;;;;;9.10;2.67;;;-1.20;99.90;;;;;;5055825;28;20560;-52
2021/01/14 03:31:51;;;;;;;7.35;2.30;;;-1.20;99.90;;;;;;5062411;28;20106;-54
2021/01/14 03:34:16;;;;;;;10.30;2.40;;;-1.10;99.90;;;;;;5064355;28;20070;-52
2021/01/14 03:36:56;;;;;;;7.93;2.45;;;-1.10;99.90;;;;;;5062544;28;20032;-50
2021/01/14 03:39:23;;;;;;;17.73;2.75;;;-1.10;99.90;;;;;;5064384;28;20087;-50
2021/01/14 03:41:50;;;;;;;13.40;3.03;;;-1.20;99.90;;;;;;5054570;28;20497;-54
2021/01/14 03:44:16;;;;;;;7.32;2.17;;;-1.20;99.90;;;;;;5064371;28;20407;-52
2021/01/14 03:46:45;;;;;;;16.75;3.50;;;-1.20;99.90;;;;;;5062695;28;20048;-51
2021/01/14 03:49:10;;;;;;;9.13;2.20;;;-1.30;99.90;;;;;;5064346;28;20043;-54
2021/01/14 03:51:36;;;;;;;9.43;2.28;;;-1.20;99.90;;;;;;5068152;28;20036;-50
2021/01/14 03:54:01;;;;;;;10.57;2.53;;;-1.20;99.90;;;;;;5066477;28;20453;-54
2021/01/14 03:56:27;;;;;;;9.00;3.55;;;-1.10;99.90;;;;;;5066175;28;20543;-53
2021/01/14 03:58:52;;;;;;;10.23;2.80;;;-1.20;99.90;;;;;;5047919;28;20095;-54
2021/01/14 04:01:20;;;;;;;9.15;2.50;;;-1.20;99.90;;;;;;5046182;28;20075;-48
2021/01/14 04:03:46;;;;;;;8.02;3.40;;;-1.10;99.90;;;;;;5058779;28;20051;-51
2021/01/14 04:06:12;;;;;;;10.07;2.75;;;-1.10;99.90;;;;;;5065768;28;20041;-53
2021/01/14 04:08:38;;;;;;;15.63;2.88;;;-1.20;99.90;;;;;;5064987;28;20082;-57
2021/01/14 04:11:04;;;;;;;7.57;2.20;;;-1.20;99.90;;;;;;5065866;28;20090;-49
2021/01/14 04:13:30;;;;;;;8.50;2.47;;;-1.20;99.90;;;;;;5059610;28;20116;-50
2021/01/14 04:15:56;;;;;;;10.10;3.40;;;-1.20;99.90;;;;;;5043678;28;20792;-54
2021/01/14 04:18:21;;;;;;;5.47;2.30;;;-1.30;99.90;;;;;;5047159;28;20053;-53
2021/01/14 04:20:47;;;;;;;13.73;3.47;;;-1.30;99.90;;;;;;5047258;28;20075;-48
2021/01/14 04:23:13;;;;;;;11.45;2.95;;;-1.30;99.90;;;;;;5047519;28;20041;-50
2021/01/14 04:25:38;;;;;;;8.85;2.55;;;-1.30;99.90;;;;;;5045368;28;20048;-51
2021/01/14 04:28:04;;;;;;;9.10;3.35;;;-1.30;99.90;;;;;;5047477;28;20052;-50
2021/01/14 04:30:34;;;;;;;13.45;5.10;;;-1.30;99.90;;;;;;5045706;28;20836;-46
2021/01/14 04:33:13;;;;;;;15.10;4.10;;;-1.40;99.90;;;;;;5051938;28;20112;-50
2021/01/14 04:35:56;;;;;;;11.15;2.85;;;-1.40;99.90;;;;;;5061810;28;20040;-50
2021/01/14 04:38:23;;;;;;;9.90;3.05;;;-1.40;99.90;;;;;;5066161;28;20123;-52
2021/01/14 04:40:57;;;;;;;17.75;3.05;;;-1.40;99.90;;;;;;5067207;28;20047;-52
2021/01/14 04:43:24;;;;;;;12.05;3.13;;;-1.30;99.90;;;;;;5065221;28;20055;-49
2021/01/14 04:45:55;;;;;;;8.25;3.25;;;-1.30;99.90;;;;;;5065926;28;20484;-50
2021/01/14 04:48:22;;;;;;;14.55;2.83;;;-1.30;99.90;;;;;;5059396;28;20040;-50
2021/01/14 04:50:49;;;;;;;6.82;2.50;;;-1.30;99.90;;;;;;5046624;28;20049;-50
2021/01/14 04:53:19;;;;;;;9.18;2.83;;;-1.20;99.90;;;;;;5046669;28;20128;-51
2021/01/14 04:55:46;;;;;;;10.77;3.28;;;-1.20;99.90;;;;;;5046086;28;20055;-49
2021/01/14 04:58:15;;;;;;;4.93;2.33;;;-1.20;99.90;;;;;;5046404;28;20051;-56
2021/01/14 05:00:47;;;;;;;17.63;2.78;;;-1.10;99.90;;;;;;5046406;28;20202;-54
2021/01/14 05:03:19;;;;;;;13.15;3.33;;;-1.10;99.90;;;;;;5053546;28;20182;-54
2021/01/14 05:05:47;;;;;;;8.38;2.60;;;-1.00;99.90;;;;;;5065929;28;20037;-46
2021/01/14 05:08:14;;;;;;;14.70;3.08;;;-1.10;99.90;;;;;;5065674;28;20136;-52
2021/01/14 05:10:41;;;;;;;9.77;3.45;;;-1.10;99.90;;;;;;5066346;28;20036;-53
2021/01/14 05:13:08;;;;;;;14.90;5.55;;;-1.20;99.90;;;;;;5045743;28;20051;-47
2021/01/14 05:15:35;;;;;;;8.30;3.00;;;-1.30;99.90;;;;;;5045048;28;20603;-51
2021/01/14 05:18:00;;;;;;;6.82;3.00;;;-1.30;99.90;;;;;;5045700;28;20675;-55
2021/01/14 05:20:27;;;;;;;7.88;3.33;;;-1.30;99.90;;;;;;5045903;28;20040;-51
2021/01/14 05:23:03;;;;;;;15.00;4.00;;;-1.30;99.90;;;;;;5046282;28;20086;-54
2021/01/14 05:25:31;;;;;;;17.85;3.60;;;-1.30;99.90;;;;;;5045874;28;20042;-49
2021/01/14 05:28:14;;;;;;;14.93;4.03;;;-1.40;99.90;;;;;;5045906;28;20086;-57
2021/01/14 05:30:40;;;;;;;9.77;3.10;;;-1.30;99.90;;;;;;5045365;28;20118;-53
2021/01/14 05:33:17;;;;;;;15.85;3.75;;;-1.40;99.90;;;;;;5062456;28;20044;-46
2021/01/14 05:35:50;;;;;;;9.30;2.80;;;-1.40;99.90;;;;;;5057044;28;20659;-53
2021/01/14 05:38:25;;;;;;;12.15;3.42;;;-1.30;99.90;;;;;;5061382;28;20028;-49
2021/01/14 05:41:11;;;;;;;10.48;3.50;;;-1.40;99.90;;;;;;5065804;28;20106;-46
2021/01/14 05:43:55;;;;;;;11.32;3.45;;;-1.50;99.90;;;;;;5065480;28;20126;-54
2021/01/14 05:46:30;;;;;;;31.95;14.43;;;-1.50;99.90;;;;;;5062538;28;20558;-51
2021/01/14 05:48:58;;;;;;;7.63;3.07;;;-1.40;99.90;;;;;;5055671;28;20041;-46
2021/01/14 05:51:25;;;;;;;12.68;3.38;;;-1.40;99.90;;;;;;5044832;28;20319;-52
2021/01/14 05:53:55;;;;;;;18.80;4.85;;;-1.40;99.90;;;;;;5044410;28;20130;-55
2021/01/14 05:56:40;;;;;;;11.75;3.65;;;-1.20;99.90;;;;;;5042505;28;20128;-52
2021/01/14 05:59:10;;;;;;;12.13;3.47;;;-1.10;99.90;;;;;;5044440;28;20033;-49
2021/01/14 06:01:57;;;;;;;14.10;4.03;;;-1.20;99.90;;;;;;5048680;28;20051;-53
2021/01/14 06:04:25;;;;;;;7.03;3.08;;;-1.30;99.90;;;;;;5062052;28;20113;-52
2021/01/14 06:06:54;;;;;;;9.70;2.97;;;-1.20;99.90;;;;;;5043043;28;20575;-51
2021/01/14 06:09:21;;;;;;;11.05;3.42;;;-1.30;99.90;;;;;;5058938;28;20045;-52
2021/01/14 06:11:49;;;;;;;16.60;3.90;;;-1.40;99.90;;;;;;5064583;28;20171;-52
2021/01/14 06:14:33;;;;;;;11.65;3.38;;;-1.40;99.90;;;;;;5062656;28;20052;-53
2021/01/14 06:17:04;;;;;;;10.68;3.58;;;-1.30;99.90;;;;;;5060206;28;20079;-52
2021/01/14 06:19:30;;;;;;;13.00;3.50;;;-1.30;99.90;;;;;;5064507;28;20047;-49
2021/01/14 06:21:57;;;;;;;15.48;4.15;;;-1.30;99.90;;;;;;5064241;28;20036;-52
2021/01/14 06:24:36;;;;;;;9.27;3.17;;;-1.30;99.90;;;;;;5064431;28;20103;-52
2021/01/14 06:27:05;;;;;;;14.02;3.58;;;-1.20;99.90;;;;;;5060350;28;20751;-48
2021/01/14 06:29:32;;;;;;;7.65;3.40;;;-1.30;99.90;;;;;;5046706;28;20051;-58
2021/01/14 06:32:11;;;;;;;8.02;2.67;;;-1.20;99.90;;;;;;5054862;28;20040;-49
2021/01/14 06:34:41;;;;;;;8.10;3.10;;;-1.20;99.90;;;;;;5065107;28;20109;-53
2021/01/14 06:37:08;;;;;;;12.48;3.47;;;-1.10;99.90;;;;;;5063830;28;20675;-51
2021/01/14 06:39:42;;;;;;;9.65;2.88;;;-1.10;99.90;;;;;;5064299;28;20511;-49
2021/01/14 06:42:29;;;;;;;12.77;3.40;;;-1.10;99.90;;;;;;5044642;28;20051;-49
2021/01/14 06:45:00;;;;;;;7.55;3.17;;;-1.10;99.90;;;;;;5044482;28;20044;-47
2021/01/14 06:47:56;;;;;;;15.38;3.03;;;-1.00;99.90;;;;;;5058702;28;20060;-51
2021/01/14 06:50:24;;;;;;;8.38;2.38;;;-1.00;99.90;;;;;;5060702;28;20071;-48
2021/01/14 06:53:20;;;;;;;9.90;2.80;;;-0.90;99.90;;;;;;5044494;28;20403;-51
2021/01/14 06:55:45;;;;;;;9.68;3.08;;;-1.00;99.90;;;;;;5043769;28;20044;-51
2021/01/14 06:58:15;;;;;;;10.20;3.08;;;-1.00;99.90;;;;;;5044439;28;20140;-49
2021/01/14 07:00:47;;;;;;;7.55;3.38;;;-1.00;99.90;;;;;;5040589;28;20052;-52
2021/01/14 07:03:13;;;;;;;12.00;3.80;;;-1.10;99.90;;;;;;5043076;28;20131;-46
2021/01/14 07:05:51;;;;;;;12.18;3.22;;;-1.10;99.90;;;;;;5043961;28;20124;-51
2021/01/14 07:08:39;;;;;;;10.93;3.30;;;-1.10;99.90;;;;;;5054433;28;20408;-54
2021/01/14 07:11:08;;;;;;;9.48;3.65;;;-1.10;99.90;;;;;;5064345;28;20075;-55
2021/01/14 07:13:51;;;;;;;11.40;3.70;;;-1.00;99.90;;;;;;5062117;28;20068;-51
2021/01/14 07:16:19;;;;;;;14.77;3.55;;;-1.00;99.90;;;;;;5062390;28;20078;-54
2021/01/14 07:18:45;;;;;;;15.25;3.90;;;-1.00;99.90;;;;;;5063757;28;20056;-51
2021/01/14 07:21:25;;;;;;;13.52;3.72;;;-1.10;99.90;;;;;;5063706;28;20087;-50
2021/01/14 07:24:18;;;;;;;14.35;3.72;;;-1.00;99.90;;;;;;5064467;28;20045;-46
2021/01/14 07:26:45;;;;;;;8.23;3.78;;;-1.00;99.90;;;;;;5067404;28;20053;-58
2021/01/14 07:29:11;;;;;;;7.38;3.88;;;-1.10;99.90;;;;;;5067947;28;20059;-51
2021/01/14 07:31:46;;;;;;;8.82;3.88;;;-1.10;99.90;;;;;;5065829;28;20916;-51
2021/01/14 07:34:31;;;;;;;12.23;4.10;;;-1.10;99.90;;;;;;5063464;28;20045;-53
2021/01/14 07:36:57;;;;;;;8.48;3.60;;;-1.00;99.90;;;;;;5067241;28;20068;-51
2021/01/14 07:39:46;;;;;;;7.35;3.40;;;-1.00;99.90;;;;;;5067263;28;20076;-51
2021/01/14 07:42:21;;;;;;;9.23;3.42;;;-1.00;99.90;;;;;;5066465;28;20404;-52
2021/01/14 07:44:54;;;;;;;9.02;3.28;;;-1.00;99.90;;;;;;5067627;28;20044;-55
2021/01/14 07:47:34;;;;;;;9.98;4.00;;;-1.00;99.90;;;;;;5065168;28;20048;-46
2021/01/14 07:50:17;;;;;;;10.43;4.00;;;-1.00;99.90;;;;;;5066071;28;20067;-56
2021/01/14 07:52:45;;;;;;;12.85;4.05;;;-1.00;99.90;;;;;;5067620;28;20051;-50
2021/01/14 07:55:10;;;;;;;12.35;3.80;;;-1.00;99.90;;;;;;5063648;28;20094;-51
2021/01/14 07:57:46;;;;;;;12.77;4.40;;;-1.00;99.90;;;;;;5046761;28;20099;-58
2021/01/14 08:00:21;;;;;;;10.15;4.43;;;-1.00;99.90;;;;;;5047374;28;20049;-56
2021/01/14 08:03:06;;;;;;;9.70;4.13;;;-1.00;99.90;;;;;;5047165;28;20045;-49
2021/01/14 08:05:43;;;;;;;15.13;4.60;;;-0.90;99.90;;;;;;5046786;28;20114;-50
2021/01/14 08:08:27;;;;;;;11.80;4.93;;;-0.90;99.90;;;;;;5056642;28;20040;-50
2021/01/14 08:11:16;;;;;;;11.98;4.75;;;-0.90;99.90;;;;;;5066103;28;20072;-46
2021/01/14 08:14:06;;;;;;;8.18;4.25;;;-0.90;99.90;;;;;;5057548;28;20053;-53
2021/01/14 08:16:36;;;;;;;11.98;5.40;;;-0.90;99.90;;;;;;5065904;28;20044;-52
2021/01/14 08:19:12;;;;;;;15.45;4.53;;;-0.90;99.90;;;;;;5067606;28;20039;-51
2021/01/14 08:21:38;;;;;;;14.93;5.40;;;-0.90;99.90;;;;;;5065353;28;20029;-52
2021/01/14 08:24:03;;;;;;;18.27;5.65;;;-1.00;99.90;;;;;;5047949;28;20448;-48
2021/01/14 08:26:29;;;;;;;13.63;4.80;;;-0.90;99.90;;;;;;5050971;28;20127;-50
2021/01/14 08:29:01;;;;;;;13.23;5.28;;;-0.90;99.90;;;;;;5067409;28;20044;-48
2021/01/14 08:31:38;;;;;;;14.68;6.20;;;-0.90;99.90;;;;;;5066534;28;20044;-52
2021/01/14 08:34:08;;;;;;;19.95;6.13;;;-0.90;99.90;;;;;;5056944;28;20794;-56
2021/01/14 08:36:45;;;;;;;18.75;6.20;;;-0.90;99.90;;;;;;5060960;28;20051;-52
2021/01/14 08:39:17;;;;;;;12.18;5.10;;;-1.10;99.90;;;;;;5065550;28;20071;-51
2021/01/14 08:41:44;;;;;;;15.65;6.10;;;-1.00;99.90;;;;;;5067306;28;20503;-54
2021/01/14 08:44:10;;;;;;;17.10;5.95;;;-1.10;99.90;;;;;;5067697;28;20090;-57
2021/01/14 08:46:40;;;;;;;23.48;7.53;;;-1.10;99.90;;;;;;5065867;28;20037;-57
2021/01/14 08:49:13;;;;;;;15.80;5.35;;;-1.10;99.90;;;;;;5066212;28;20040;-51
2021/01/14 08:51:39;;;;;;;16.67;5.85;;;-1.10;99.90;;;;;;5065333;28;20687;-59
2021/01/14 08:54:09;;;;;;;18.95;5.68;;;-0.90;99.90;;;;;;5065129;28;20040;-57
2021/01/14 08:56:36;;;;;;;18.35;7.13;;;-1.00;99.90;;;;;;5065907;28;20075;-57
2021/01/14 08:59:18;;;;;;;18.42;6.00;;;-1.10;99.90;;;;;;5064941;28;20102;-58
2021/01/14 09:01:43;;;;;;;16.55;6.30;;;-1.00;99.90;;;;;;5065336;28;20949;-54
2021/01/14 09:04:10;;;;;;;12.88;5.32;;;-1.00;99.90;;;;;;5065955;28;20123;-49
2021/01/14 09:06:40;;;;;;;20.92;6.13;;;-0.90;99.90;;;;;;5059063;28;20144;-50
2021/01/14 09:09:08;;;;;;;16.55;6.05;;;-1.00;99.90;;;;;;5059143;28;20043;-47
2021/01/14 09:11:34;;;;;;;17.05;7.38;;;-1.00;99.90;;;;;;5070577;28;20043;-51
2021/01/14 09:14:03;;;;;;;18.88;6.82;;;;;;;;;;5074222;28;20048;-49
2021/01/14 09:16:29;;;;;;;21.92;7.85;;;;;;;;;;5055397;28;20040;-55
2021/01/14 09:18:55;;;;;;;14.52;6.30;;;;;;;;;;5065269;28;20500;-50
2021/01/14 09:21:22;;;;;;;15.65;6.70;;;;;;;;;;5065566;28;20129;-50
2021/01/14 09:23:48;;;;;;;16.48;6.30;;;;;;;;;;5065292;28;20154;-55
2021/01/14 09:26:18;;;;;;;19.13;6.45;;;;;;;;;;5064199;28;20119;-50
2021/01/14 09:28:47;;;;;;;15.00;6.70;;;;;;;;;;5057901;28;20119;-50
2021/01/14 09:31:14;;;;;;;16.15;6.43;;;;;;;;;;5058638;28;20041;-53
2021/01/14 09:33:41;;;;;;;15.18;6.95;;;;;;;;;;5064514;28;20040;-55
2021/01/14 09:36:14;;;;;;;19.30;7.70;;;;;;;;;;5061410;28;20044;-49
2021/01/14 09:39:00;;;;;;;19.38;9.57;;;;;;;;;;5064861;28;20521;-54
2021/01/14 09:41:29;;;;;;;17.75;7.80;;;;;;;;;;5061276;28;20114;-47
2021/01/14 09:43:58;;;;;;;23.45;8.43;;;;;;;;;;5058747;28;20119;-50
2021/01/14 09:46:27;;;;;;;16.90;6.20;;;;;;;;;;5063582;28;20131;-54
2021/01/14 09:49:05;;;;;;;13.10;6.10;;;;;;;;;;5064234;28;20047;-53
2021/01/14 09:51:31;;;;;;;15.05;6.75;;;;;;;;;;5060560;28;20549;-50
2021/01/14 09:53:57;;;;;;;13.82;6.97;;;;;;;;;;5076342;28;20702;-55
2021/01/14 09:56:31;;;;;;;19.77;7.65;;;;;;;;;;5063687;28;20072;-49
2021/01/14 09:58:58;;;;;;;19.48;7.38;;;;;;;;;;5064666;28;20462;-51
2021/01/14 10:01:30;;;;;;;15.15;6.97;;;;;;;;;;5071816;28;20044;-48
2021/01/14 10:04:03;;;;;;;21.60;8.38;;;;;;;;;;5064553;28;20040;-51
2021/01/14 10:06:31;;;;;;;18.23;7.55;;;;;;;;;;5044372;28;20403;-49
2021/01/14 10:08:57;;;;;;;17.58;6.93;;;;;;;;;;5061234;28;20036;-52
2021/01/14 10:11:25;;;;;;;16.88;7.68;;;;;;;;;;5069788;28;20044;-50
2021/01/14 10:13:52;;;;;;;15.57;6.60;;;;;;;;;;5068979;28;20036;-52
2021/01/14 10:16:21;;;;;;;22.38;8.07;;;;;;;;;;5058283;28;20153;-54
2021/01/14 10:18:47;;;;;;;15.75;7.05;;;;;;;;;;5064274;28;20040;-49
2021/01/14 10:21:14;;;;;;;11.30;6.25;;;;;;;;;;5057562;28;20039;-51
2021/01/14 10:23:40;;;;;;;11.70;6.15;;;;;;;;;;5058990;28;20047;-53
2021/01/14 10:26:06;;;;;;;10.93;5.38;;;;;;;;;;5063691;28;20047;-56
2021/01/14 10:28:43;;;;;;;13.88;6.20;;;;;;;;;;5054542;28;20033;-52
2021/01/14 10:31:09;;;;;;;22.42;6.22;;;;;;;;;;5054667;28;20043;-51
2021/01/14 10:33:35;;;;;;;16.42;6.05;;;;;;;;;;5062369;28;20068;-49
2021/01/14 10:36:01;;;;;;;13.65;5.95;;;;;;;;;;5065800;28;20041;-53
2021/01/14 10:38:29;;;;;;;17.20;6.18;;;;;;;;;;5058116;28;20045;-54
2021/01/14 10:40:57;;;;;;;14.90;6.50;;;;;;;;;;5060495;28;20063;-55
2021/01/14 10:43:30;;;;;;;14.27;6.35;;;;;;;;;;5055080;28;20040;-53
2021/01/14 10:45:56;;;;;;;14.65;5.93;;;;;;;;;;5062790;28;20040;-56
2021/01/14 10:48:22;;;;;;;10.05;4.80;;;;;;;;;;5063967;28;20044;-54
2021/01/14 10:50:48;;;;;;;10.85;5.00;;;;;;;;;;5064070;28;20047;-55
2021/01/14 10:53:25;;;;;;;10.52;5.38;;;;;;;;;;5064646;28;20044;-56
2021/01/14 10:55:50;;;;;;;;;;;;;;;;;;5063898;28;20036;-53
2021/01/14 10:58:21;;;;;;;11.40;4.37;;;;;;;;;;5063648;28;19920;-56
2021/01/14 11:00:47;;;;;;;10.20;4.38;;;;;;;;;;5063552;28;20043;-57
2021/01/14 11:03:14;;;;;;;135.60;78.65;;;;;;;;;;5051370;28;20124;-58
2021/01/14 11:05:47;;;;;;;29.00;16.70;;;;;;;;;;5043247;28;20041;-55
2021/01/14 11:08:14;;;;;;;15.27;7.25;;;;;;;;;;5052044;28;20045;-53
2021/01/14 11:10:41;;;;;;;8.15;4.72;;;;;;;;;;5062661;28;20064;-55
2021/01/14 11:13:10;;;;;;;9.35;5.55;;;;;;;;;;5084133;28;20044;-57
2021/01/14 11:15:37;;;;;;;10.77;4.30;;;;;;;;;;5068530;28;20135;-55
2021/01/14 11:18:04;;;;;;;13.88;5.00;;;;;;;;;;5062613;28;20115;-56
2021/01/14 11:20:30;;;;;;;11.50;4.68;;;;;;;;;;5063385;28;20049;-54
2021/01/14 11:22:56;;;;;;;14.45;5.57;;;;;;;;;;5063882;28;20048;-52
2021/01/14 11:25:22;;;;;;;14.05;4.93;;;;;;;;;;5058114;28;20428;-55
2021/01/14 11:27:48;;;;;;;7.68;4.82;;;;;;;;;;5060690;28;20063;-55
2021/01/14 11:30:15;;;;;;;10.68;4.70;;;;;;;;;;5061240;28;20024;-55
2021/01/14 11:32:41;;;;;;;10.60;4.60;;;;;;;;;;5056843;28;20037;-50
2021/01/14 11:35:07;;;;;;;8.60;4.60;;;;;;;;;;5063262;28;20041;-52
2021/01/14 11:37:33;;;;;;;8.40;4.68;;;;;;;;;;5061714;28;20399;-56
2021/01/14 11:39:59;;;;;;;17.88;5.63;;;;;;;;;;5062822;28;20128;-53
2021/01/14 11:42:29;;;;;;;10.55;5.00;;;;;;;;;;5063101;28;20828;-54
2021/01/14 11:44:55;;;;;;;11.77;5.25;;;;;;;;;;5062078;28;20067;-55
2021/01/14 11:47:21;;;;;;;13.95;5.22;;;;;;;;;;5059936;28;20573;-57
2021/01/14 11:49:47;;;;;;;10.27;5.18;;;;;;;;;;5062245;28;20041;-54
2021/01/14 11:52:15;;;;;;;9.23;5.25;;;;;;;;;;5062560;28;20348;-57
2021/01/14 11:54:42;;;;;;;9.73;5.07;;;;;;;;;;5060276;28;20440;-48
2021/01/14 11:57:08;;;;;;;10.23;5.22;;;;;;;;;;5043196;28;20033;-48
2021/01/14 11:59:34;;;;;;;11.77;5.45;;;;;;;;;;5041854;28;20063;-59
2021/01/14 12:02:00;;;;;;;9.77;4.72;;;;;;;;;;5047938;28;20042;-52
2021/01/14 12:04:26;;;;;;;11.50;4.95;;;;;;;;;;5053640;28;20045;-51
2021/01/14 12:06:53;;;;;;;14.88;5.43;;;;;;;;;;5044788;28;20051;-52
2021/01/14 12:09:19;;;;;;;12.60;5.25;;;;;;;;;;5063430;28;20400;-55
2021/01/14 12:11:45;;;;;;;30.08;15.57;;;;;;;;;;5070082;28;20109;-53
2021/01/14 12:14:11;;;;;;;9.27;5.43;;;;;;;;;;5066044;28;20075;-54
2021/01/14 12:16:37;;;;;;;7.68;4.35;;;;;;;;;;5065780;28;20625;-51
2021/01/14 12:19:03;;;;;;;12.25;3.55;;;;;;;;;;5083595;22;20036;-74
2021/01/14 12:21:29;;;;;;;7.05;3.95;;;;;;;;;;5060756;28;20107;-74
2021/01/14 12:23:55;;;;;;;10.27;3.60;;;;;;;;;;5052564;28;20373;-75
2021/01/14 12:26:21;;;;;;;7.60;4.05;;;;;;;;;;5052421;28;20072;-75
2021/01/14 12:28:49;;;;;;;7.43;3.22;;;;;;;;;;5036832;28;20049;-77
2021/01/14 12:31:15;;;;;;;8.27;3.28;;;;;;;;;;5033034;28;20103;-75
2021/01/14 12:33:41;;;;;;;13.32;3.92;;;;;;;;;;5032883;28;20037;-75
2021/01/14 12:36:07;;;;;;;5.80;3.08;;;;;;;;;;5033379;28;20044;-75
2021/01/14 12:38:33;;;;;;;6.32;3.08;;;;;;;;;;5046360;28;20470;-75
2021/01/14 12:40:59;;;;;;;6.05;3.00;;;;;;;;;;5017066;28;20033;-75
2021/01/14 12:43:25;;;;;;;5.75;3.25;;;;;;;;;;5024907;28;20043;-72
2021/01/14 12:45:51;;;;;;;5.70;3.05;;;;;;;;;;5032091;28;20036;-76
2021/01/14 12:48:18;;;;;;;6.80;3.20;;;;;;;;;;5032232;28;20489;-78
2021/01/14 12:50:44;;;;;;;5.82;2.72;;;;;;;;;;5032688;28;20060;-73
2021/01/14 12:53:11;;;;;;;9.75;3.22;;;;;;;;;;5031994;28;20440;-75
2021/01/14 12:55:37;;;;;;;8.18;3.17;;;;;;;;;;5032268;28;20452;-76
2021/01/14 12:58:05;;;;;;;6.82;3.50;;;;;;;;;;5031777;28;20088;-76
2021/01/14 13:00:32;;;;;;;9.60;3.60;;;;;;;;;;5032066;28;20048;-74
2021/01/14 13:02:58;;;;;;;10.20;3.85;;;;;;;;;;5031844;28;20090;-74
2021/01/14 13:05:24;;;;;;;12.18;4.25;;;;;;;;;;5033266;28;20084;-75
2021/01/14 13:07:51;;;;;;;8.57;3.67;;;;;;;;;;5044595;28;20046;-77
2021/01/14 13:10:18;;;;;;;8.98;4.15;;;;;;;;;;5035580;28;20036;-73
2021/01/14 13:12:44;;;;;;;7.57;3.40;;;;;;;;;;5048329;28;20112;-76
2021/01/14 13:15:10;;;;;;;9.35;3.45;;;;;;;;;;5033450;28;20044;-73
2021/01/14 13:17:36;;;;;;;7.30;2.40;;;;;;;;;;5032428;28;20041;-76
2021/01/14 13:20:03;;;;;;;6.32;2.83;;;;;;;;;;5032879;28;20072;-74
2021/01/14 13:22:29;;;;;;;8.27;2.58;;;;;;;;;;5033064;28;20378;-75
2021/01/14 13:24:56;;;;;;;7.28;1.98;;;;;;;;;;5033015;28;20099;-75